Time;durP1;ratioP1;P1;durP2;ratioP2;P2;SDS_P1;SDS_P2;PMS_P1;PMS_P2;Temp;Humidity;BMP_temperature;BMP_pressure;BME280_temperature;BME280_humidity;BME280_pressure;Samples;Min_cycle;Max_cycle;Signal;HPM_P1;HPM_P2
2021/06/12 00:01:42;;;;;;;24.80;7.57;;;;;;;10.78;81.35;100059.28;4884567;29;20040;-65
2021/06/12 00:04:09;;;;;;;25.70;7.43;;;;;;;10.75;81.36;100068.66;4886466;29;20040;-65
2021/06/12 00:06:34;;;;;;;21.08;5.90;;;;;;;10.77;81.21;100063.84;4866336;29;20041;-66
2021/06/12 00:09:00;;;;;;;14.00;5.63;;;;;;;10.71;81.41;100072.88;4876334;29;20033;-65
2021/06/12 00:11:26;;;;;;;19.88;6.43;;;;;;;10.68;81.56;100067.97;4884541;29;20437;-66
2021/06/12 00:13:51;;;;;;;20.52;5.32;;;;;;;10.71;81.19;100058.59;4888009;29;20498;-66
2021/06/12 00:16:18;;;;;;;24.45;6.50;;;;;;;10.83;81.26;100051.31;4890134;29;20142;-66
2021/06/12 00:18:46;;;;;;;16.60;5.85;;;;;;;10.86;81.38;100056.25;4885867;29;20040;-66
2021/06/12 00:21:12;;;;;;;21.85;6.10;;;;;;;10.91;81.43;100058.22;4875479;29;20029;-66
2021/06/12 00:23:38;;;;;;;20.02;5.75;;;;;;;10.94;80.84;100061.25;4875669;29;20044;-66
2021/06/12 00:26:04;;;;;;;18.73;6.40;;;;;;;10.91;79.66;100060.91;4878597;29;20039;-66
2021/06/12 00:28:30;;;;;;;17.23;5.20;;;;;;;10.74;81.00;100061.63;4890003;29;20061;-66
2021/06/12 00:30:56;;;;;;;17.63;5.63;;;;;;;10.75;81.22;100071.34;4880201;29;20040;-66
2021/06/12 00:33:21;;;;;;;17.38;5.60;;;;;;;10.60;80.70;100076.41;4887316;29;20039;-66
2021/06/12 00:35:47;;;;;;;23.30;6.35;;;;;;;10.63;81.57;100084.84;4867244;29;20132;-66
2021/06/12 00:38:13;;;;;;;17.15;5.63;;;;;;;10.69;81.18;100081.22;4888452;29;20379;-66
2021/06/12 00:40:39;;;;;;;22.48;5.57;;;;;;;10.65;81.59;100069.25;4860564;29;20041;-66
2021/06/12 00:43:05;;;;;;;24.17;6.07;;;;;;;10.71;81.32;100077.47;4871080;29;20044;-66
2021/06/12 00:45:32;;;;;;;19.15;5.47;;;;;;;10.63;80.93;100075.94;4880374;29;20487;-65
2021/06/12 00:47:59;;;;;;;20.58;6.30;;;;;;;10.53;81.81;100069.25;4892496;29;20039;-66
2021/06/12 00:50:30;;;;;;;23.40;6.00;;;;;;;10.52;82.22;100077.56;4882789;29;20403;-66
2021/06/12 00:52:56;;;;;;;20.65;5.78;;;;;;;10.60;82.01;100089.88;4886866;29;20111;-66
2021/06/12 00:55:21;;;;;;;19.10;6.47;;;;;;;10.70;81.80;100076.63;4889603;29;20111;-65
2021/06/12 00:57:47;;;;;;;20.75;6.40;;;;;;;10.68;81.30;100078.72;4885591;29;20387;-66
2021/06/12 01:00:19;;;;;;;22.30;5.80;;;;;;;10.74;80.79;100075.09;4880726;29;20561;-66
2021/06/12 01:02:45;;;;;;;29.45;7.43;;;;;;;10.75;80.56;100063.25;4884238;29;20077;-66
2021/06/12 01:05:13;;;;;;;27.02;7.28;;;;;;;10.76;80.33;100064.09;4888771;29;20029;-65
2021/06/12 01:07:39;;;;;;;23.88;7.95;;;;;;;10.82;80.53;100058.56;4882401;29;20116;-65
2021/06/12 01:10:08;;;;;;;25.73;7.18;;;;;;;10.91;81.33;100061.75;4883236;29;20384;-65
2021/06/12 01:12:42;;;;;;;17.75;6.05;;;;;;;10.79;81.60;100069.81;4881131;29;20101;-65
2021/06/12 01:15:10;;;;;;;23.52;6.55;;;;;;;10.82;81.43;100069.34;4878557;29;20505;-65
2021/06/12 01:17:42;;;;;;;27.35;6.55;;;;;;;10.92;80.54;100067.94;4884531;29;20029;-65
2021/06/12 01:20:45;;;;;;;21.63;6.28;;;;;;;11.01;80.02;100069.19;4884963;29;20118;-65
2021/06/12 01:23:33;;;;;;;28.65;6.82;;;;;;;11.04;80.43;100065.22;4879803;29;20029;-65
2021/06/12 01:26:44;;;;;;;28.77;6.35;;;;;;;11.03;80.24;100072.47;4882765;29;20036;-65
2021/06/12 01:29:23;;;;;;;21.63;7.10;;;;;;;11.04;80.28;100073.31;4883725;29;20037;-65
2021/06/12 01:31:51;;;;;;;29.00;6.95;;;;;;;11.03;80.28;100071.69;4880439;29;20041;-65
2021/06/12 01:34:19;;;;;;;25.30;7.00;;;;;;;10.99;80.93;100068.63;4880445;29;20416;-65
2021/06/12 01:36:47;;;;;;;24.23;7.35;;;;;;;10.91;80.87;100069.81;4887772;29;20636;-65
2021/06/12 01:39:13;;;;;;;32.80;7.88;;;;;;;10.91;80.70;100077.06;4879953;29;20088;-65
2021/06/12 01:41:41;;;;;;;25.15;7.47;;;;;;;10.83;80.81;100068.28;4886554;29;20497;-65
2021/06/12 01:44:08;;;;;;;27.23;8.40;;;;;;;10.86;81.17;100074.28;4874697;29;20043;-65
2021/06/12 01:46:37;;;;;;;27.95;6.80;;;;;;;10.78;82.03;100078.97;4880801;29;20046;-65
2021/06/12 01:49:04;;;;;;;23.33;7.00;;;;;;;10.65;81.79;100085.44;4881703;29;20501;-65
2021/06/12 01:51:30;;;;;;;25.50;7.05;;;;;;;10.59;82.55;100086.34;4889254;29;20133;-65
2021/06/12 01:53:57;;;;;;;28.38;7.13;;;;;;;10.43;83.37;100087.88;4884103;29;20082;-65
2021/06/12 01:56:26;;;;;;;24.23;7.65;;;;;;;10.43;83.18;100087.88;4898112;29;20044;-65
2021/06/12 01:58:52;;;;;;;23.88;8.75;;;;;;;10.53;84.13;100088.09;4872017;29;20115;-65
2021/06/12 02:01:20;;;;;;;19.88;7.65;;;;;;;10.61;83.23;100097.72;4884572;29;20044;-65
2021/06/12 02:03:47;;;;;;;22.75;8.02;;;;;;;10.61;83.15;100088.81;4881191;29;20033;-65
2021/06/12 02:06:16;;;;;;;22.90;8.75;;;;;;;10.75;83.63;100086.72;4891761;29;20077;-65
2021/06/12 02:08:43;;;;;;;29.52;9.05;;;;;;;10.72;84.31;100096.06;4865575;29;20044;-65
2021/06/12 02:11:11;;;;;;;32.03;9.75;;;;;;;10.72;83.80;100089.88;4871859;29;20057;-65
2021/06/12 02:13:37;;;;;;;27.35;9.70;;;;;;;10.81;83.67;100085.75;4876240;29;20067;-65
2021/06/12 02:16:04;;;;;;;36.85;9.90;;;;;;;10.86;83.51;100085.03;4876630;29;20043;-65
2021/06/12 02:18:29;;;;;;;26.40;9.55;;;;;;;10.82;83.93;100090.09;4863564;29;20037;-65
2021/06/12 02:20:56;;;;;;;21.05;8.90;;;;;;;10.85;83.42;100078.84;4886254;29;20415;-65
2021/06/12 02:23:25;;;;;;;29.77;10.23;;;;;;;10.87;83.29;100084.00;4875799;29;20041;-65
2021/06/12 02:25:51;;;;;;;29.30;9.93;;;;;;;10.84;83.42;100085.28;4882949;29;20033;-65
2021/06/12 02:28:18;;;;;;;22.90;10.23;;;;;;;10.80;84.21;100081.44;4896024;29;20479;-65
2021/06/12 02:30:50;;;;;;;30.52;11.07;;;;;;;10.80;83.76;100087.63;4890344;29;20028;-65
2021/06/12 02:33:18;;;;;;;23.52;9.73;;;;;;;10.72;84.58;100082.59;4893492;29;20426;-65
2021/06/12 02:35:44;;;;;;;29.30;8.20;;;;;;;10.69;84.27;100089.28;4874287;29;20227;-65
2021/06/12 02:38:10;;;;;;;22.20;8.10;;;;;;;10.64;84.65;100088.34;4872724;29;20717;-65
2021/06/12 02:40:36;;;;;;;24.45;9.48;;;;;;;10.50;84.64;100091.25;4889928;29;20152;-65
2021/06/12 02:43:02;;;;;;;26.02;10.50;;;;;;;10.44;84.90;100096.75;4883112;29;20032;-65
2021/06/12 02:45:28;;;;;;;27.55;10.48;;;;;;;10.45;85.23;100096.53;4880492;29;20033;-65
2021/06/12 02:48:02;;;;;;;27.35;11.40;;;;;;;10.48;85.42;100093.38;4893244;29;20112;-65
2021/06/12 02:50:34;;;;;;;32.25;11.68;;;;;;;10.51;85.16;100098.28;4885643;29;20108;-65
2021/06/12 02:53:05;;;;;;;31.33;12.05;;;;;;;10.48;85.16;100087.16;4871797;29;20418;-65
2021/06/12 02:55:32;;;;;;;30.20;12.15;;;;;;;10.48;85.63;100085.28;4867167;29;20036;-65
2021/06/12 02:58:00;;;;;;;30.30;11.38;;;;;;;10.56;85.28;100096.78;4895039;29;20047;-65
2021/06/12 03:00:27;;;;;;;25.00;10.55;;;;;;;10.52;85.85;100099.09;4884285;29;20040;-66
2021/06/12 03:02:53;;;;;;;28.33;11.57;;;;;;;10.55;85.48;100101.31;4884707;29;20029;-65
2021/06/12 03:05:24;;;;;;;23.98;11.10;;;;;;;10.51;85.23;100097.44;4869653;29;20045;-65
2021/06/12 03:07:54;;;;;;;27.40;11.10;;;;;;;10.49;85.74;100096.88;4882860;29;20054;-66
2021/06/12 03:10:22;;;;;;;26.30;10.32;;;;;;;10.51;85.55;100092.06;4895284;29;20096;-66
2021/06/12 03:12:49;;;;;;;26.90;11.15;;;;;;;10.53;85.48;100089.97;4891939;29;20048;-65
2021/06/12 03:15:17;;;;;;;43.38;11.48;;;;;;;10.52;85.29;100094.53;4888152;29;20088;-65
2021/06/12 03:17:48;;;;;;;24.48;10.52;;;;;;;10.52;85.70;100102.63;4886690;29;20555;-65
2021/06/12 03:20:16;;;;;;;23.17;10.50;;;;;;;10.47;86.00;100107.06;4887055;29;20079;-65
2021/06/12 03:22:45;;;;;;;27.40;10.48;;;;;;;10.45;85.78;100107.31;4888623;29;20554;-65
2021/06/12 03:25:12;;;;;;;29.05;10.77;;;;;;;10.38;86.49;100114.63;4892243;29;20130;-65
2021/06/12 03:27:39;;;;;;;31.55;10.23;;;;;;;10.32;86.07;100115.56;4894897;29;20033;-65
2021/06/12 03:30:05;;;;;;;29.42;10.13;;;;;;;10.29;86.38;100107.94;4877835;29;20785;-66
2021/06/12 03:32:32;;;;;;;26.90;10.10;;;;;;;10.25;86.46;100104.88;4886064;29;20444;-66
2021/06/12 03:35:00;;;;;;;24.20;10.32;;;;;;;10.22;86.62;100108.03;4896258;29;20037;-66
2021/06/12 03:37:26;;;;;;;20.42;9.98;;;;;;;10.20;87.31;100112.84;4878451;29;20712;-66
2021/06/12 03:39:52;;;;;;;29.10;11.10;;;;;;;10.21;86.96;100106.41;4888985;29;20071;-65
2021/06/12 03:42:18;;;;;;;26.88;10.88;;;;;;;10.18;87.13;100109.56;4885013;29;20070;-66
2021/06/12 03:44:45;;;;;;;26.60;10.75;;;;;;;10.16;86.92;100125.94;4878097;29;20112;-66
2021/06/12 03:47:12;;;;;;;19.55;9.63;;;;;;;10.14;87.55;100122.66;4874720;29;20032;-65
2021/06/12 03:49:38;;;;;;;27.27;10.82;;;;;;;10.10;87.47;100124.19;4882882;29;20077;-65
2021/06/12 03:52:05;;;;;;;31.48;11.23;;;;;;;10.12;87.11;100130.16;4891761;29;20040;-65
2021/06/12 03:54:34;;;;;;;19.02;10.25;;;;;;;10.14;86.96;100125.38;4895886;29;20044;-65
2021/06/12 03:57:01;;;;;;;29.63;10.63;;;;;;;10.23;87.02;100121.28;4866821;29;20033;-65
2021/06/12 03:59:26;;;;;;;23.63;10.65;;;;;;;10.35;86.60;100123.97;4882403;29;20068;-64
2021/06/12 04:01:54;;;;;;;26.63;11.15;;;;;;;10.47;86.95;100121.34;4884578;29;20070;-65
2021/06/12 04:04:21;;;;;;;23.33;10.43;;;;;;;10.64;86.63;100113.41;4886563;29;20569;-65
2021/06/12 04:06:47;;;;;;;28.27;11.05;;;;;;;10.79;85.84;100120.22;4878712;29;20081;-65
2021/06/12 04:09:12;;;;;;;36.95;10.93;;;;;;;10.98;84.87;100123.56;4882305;29;20061;-65
2021/06/12 04:11:38;;;;;;;22.17;10.23;;;;;;;11.13;84.32;100131.19;4894160;29;20123;-65
2021/06/12 04:14:04;;;;;;;34.85;10.00;;;;;;;11.24;83.83;100126.81;4883433;29;20040;-65
2021/06/12 04:16:29;;;;;;;26.05;9.50;;;;;;;11.27;84.25;100131.75;4883020;29;20044;-65
2021/06/12 04:18:55;;;;;;;21.10;8.98;;;;;;;11.35;83.80;100144.84;4889546;29;20043;-65
2021/06/12 04:21:21;;;;;;;27.20;9.57;;;;;;;11.41;83.16;100143.91;4882496;29;20037;-65
2021/06/12 04:23:46;;;;;;;17.98;9.13;;;;;;;11.47;83.06;100141.31;4895571;29;20036;-65
2021/06/12 04:26:12;;;;;;;23.33;9.35;;;;;;;11.50;82.55;100138.97;4863320;29;20047;-66
2021/06/12 04:28:38;;;;;;;19.75;8.73;;;;;;;11.52;82.78;100149.53;4893903;29;20092;-66
2021/06/12 04:31:05;;;;;;;31.70;10.15;;;;;;;11.59;82.40;100144.81;4889271;29;20073;-66
2021/06/12 04:33:30;;;;;;;20.33;9.00;;;;;;;11.66;82.47;100150.91;4887953;29;20036;-65
2021/06/12 04:35:56;;;;;;;28.50;8.75;;;;;;;11.67;81.83;100149.00;4877716;29;20063;-66
2021/06/12 04:38:22;;;;;;;22.45;9.43;;;;;;;11.64;81.66;100158.41;4880630;29;20045;-66
2021/06/12 04:40:48;;;;;;;20.75;8.80;;;;;;;11.68;82.00;100145.25;4883238;29;20041;-66
2021/06/12 04:43:13;;;;;;;19.80;8.75;;;;;;;11.71;81.99;100148.31;4873650;29;20173;-66
2021/06/12 04:45:40;;;;;;;20.55;8.93;;;;;;;11.77;81.46;100159.19;4884068;29;20447;-66
2021/06/12 04:48:08;;;;;;;19.05;8.57;;;;;;;11.74;81.33;100149.69;4884716;29;20076;-66
2021/06/12 04:50:38;;;;;;;22.42;8.73;;;;;;;11.78;81.69;100163.53;4891182;29;20123;-66
2021/06/12 04:53:05;;;;;;;21.17;8.65;;;;;;;11.87;81.88;100159.38;4872968;29;20052;-66
2021/06/12 04:55:31;;;;;;;16.73;8.27;;;;;;;11.90;81.33;100149.97;4887635;29;20059;-65
2021/06/12 04:57:57;;;;;;;24.45;8.82;;;;;;;11.98;81.10;100154.97;4888601;29;20495;-65
2021/06/12 05:00:24;;;;;;;21.42;9.38;;;;;;;12.09;80.98;100167.63;4877846;29;20029;-65
2021/06/12 05:02:49;;;;;;;23.00;9.07;;;;;;;12.14;81.05;100178.53;4876724;29;20579;-65
2021/06/12 05:05:15;;;;;;;28.05;8.57;;;;;;;12.12;80.83;100171.75;4883994;29;20044;-65
2021/06/12 05:07:41;;;;;;;23.67;8.73;;;;;;;12.25;80.37;100184.94;4875909;29;20033;-65
2021/06/12 05:10:08;;;;;;;20.63;8.65;;;;;;;12.35;80.19;100189.69;4879398;29;20494;-65
2021/06/12 05:12:34;;;;;;;18.13;7.70;;;;;;;12.40;80.15;100189.81;4869000;29;20049;-65
2021/06/12 05:15:01;;;;;;;17.05;7.50;;;;;;;12.52;79.51;100188.94;4884453;29;20029;-65
2021/06/12 05:17:28;;;;;;;19.65;7.93;;;;;;;12.54;79.29;100182.19;4884105;29;20119;-65
2021/06/12 05:19:54;;;;;;;18.50;8.10;;;;;;;12.69;78.90;100197.03;4870896;29;20444;-65
2021/06/12 05:22:27;;;;;;;21.85;7.32;;;;;;;12.71;78.43;100194.91;4883594;29;20041;-65
2021/06/12 05:24:57;;;;;;;15.07;6.35;;;;;;;12.88;77.51;100194.91;4887091;29;20036;-65
2021/06/12 05:27:23;;;;;;;14.23;6.55;;;;;;;12.95;77.27;100198.25;4892888;29;20037;-65
2021/06/12 05:29:49;;;;;;;16.33;6.95;;;;;;;12.80;77.33;100206.13;4886746;29;20032;-65
2021/06/12 05:32:16;;;;;;;13.95;6.32;;;;;;;12.82;77.45;100190.47;4877519;29;20092;-65
2021/06/12 05:34:42;;;;;;;14.73;5.60;;;;;;;12.88;76.29;100200.31;4883261;29;20080;-65
2021/06/12 05:37:08;;;;;;;13.15;5.90;;;;;;;12.87;76.89;100194.06;4889288;29;20064;-65
2021/06/12 05:39:33;;;;;;;11.52;4.65;;;;;;;12.91;75.79;100196.28;4894914;29;20124;-65
2021/06/12 05:41:59;;;;;;;14.60;4.93;;;;;;;12.89;75.62;100196.53;4890138;29;20045;-65
2021/06/12 05:44:25;;;;;;;11.05;4.30;;;;;;;12.82;74.96;100212.91;4891290;29;20729;-65
2021/06/12 05:46:51;;;;;;;11.40;4.18;;;;;;;12.94;74.38;100209.31;4882678;29;20124;-65
2021/06/12 05:49:18;;;;;;;13.32;4.10;;;;;;;12.84;75.23;100216.19;4880624;29;20041;-65
2021/06/12 05:51:44;;;;;;;11.15;3.33;;;;;;;12.92;74.25;100212.28;4887292;29;20061;-65
2021/06/12 05:54:10;;;;;;;8.88;3.22;;;;;;;12.94;73.17;100201.19;4885295;29;20033;-65
2021/06/12 05:56:36;;;;;;;9.85;3.67;;;;;;;13.27;72.36;100200.34;4891415;29;20429;-66
2021/06/12 05:59:01;;;;;;;9.80;3.03;;;;;;;13.40;71.41;100201.88;4888130;29;20108;-66
2021/06/12 06:01:27;;;;;;;10.65;3.30;;;;;;;13.74;70.87;100209.06;4875741;29;20164;-65
2021/06/12 06:03:52;;;;;;;9.73;3.05;;;;;;;14.04;69.63;100219.47;4885928;29;20071;-66
2021/06/12 06:06:18;;;;;;;9.68;2.65;;;;;;;14.34;68.36;100215.44;4892507;29;20140;-65
2021/06/12 06:08:44;;;;;;;7.57;2.40;;;;;;;14.57;67.39;100221.59;4883435;29;20056;-66
2021/06/12 06:11:09;;;;;;;12.50;2.60;;;;;;;14.69;66.96;100217.91;4885754;29;20036;-66
2021/06/12 06:13:37;;;;;;;12.63;2.40;;;;;;;15.30;64.65;100212.13;4892189;29;20064;-66
2021/06/12 06:16:03;;;;;;;4.85;1.90;;;;;;;16.48;59.88;100212.81;4883674;29;20041;-66
2021/06/12 06:18:28;;;;;;;9.57;2.13;;;;;;;16.48;59.02;100210.09;4893387;29;20046;-66
2021/06/12 06:20:54;;;;;;;10.48;1.90;;;;;;;16.52;58.19;100214.75;4881081;29;20033;-66
2021/06/12 06:23:20;;;;;;;6.63;2.15;;;;;;;16.57;57.22;100208.47;4879644;29;20063;-66
2021/06/12 06:25:45;;;;;;;10.02;2.42;;;;;;;16.81;56.91;100208.75;4881676;29;20041;-66
2021/06/12 06:28:11;;;;;;;8.75;1.92;;;;;;;17.12;55.79;100227.00;4880829;29;20021;-66
2021/06/12 06:30:37;;;;;;;6.75;2.00;;;;;;;17.09;54.79;100227.56;4886969;29;20041;-66
2021/06/12 06:33:03;;;;;;;10.68;2.33;;;;;;;16.72;56.39;100239.47;4891608;29;20483;-65
2021/06/12 06:35:28;;;;;;;10.15;2.10;;;;;;;16.60;57.46;100250.63;4884957;29;20044;-65
2021/06/12 06:37:55;;;;;;;8.07;1.88;;;;;;;16.66;56.72;100247.63;4886432;29;20032;-67
2021/06/12 06:40:20;;;;;;;6.80;2.20;;;;;;;16.12;56.61;100251.63;4884593;29;20554;-65
2021/06/12 06:42:46;;;;;;;6.82;1.70;;;;;;;15.83;57.96;100262.09;4884361;29;20476;-67
2021/06/12 06:45:12;;;;;;;9.27;1.80;;;;;;;15.81;58.21;100263.16;4883288;29;20037;-65
2021/06/12 06:47:38;;;;;;;8.75;1.70;;;;;;;15.71;58.51;100273.97;4875621;29;20036;-65
2021/06/12 06:50:06;;;;;;;7.50;1.92;;;;;;;15.28;58.30;100282.13;4893435;29;20044;-66
2021/06/12 06:52:31;;;;;;;11.25;2.13;;;;;;;14.89;58.96;100266.09;4887900;29;20112;-67
2021/06/12 06:54:57;;;;;;;11.20;1.95;;;;;;;14.71;59.96;100253.72;4892861;29;20141;-67
2021/06/12 06:57:23;;;;;;;9.55;1.90;;;;;;;14.89;59.30;100250.63;4890327;29;20120;-65
2021/06/12 06:59:49;;;;;;;8.48;2.20;;;;;;;15.06;58.50;100255.94;4871683;29;20108;-65
2021/06/12 07:02:14;;;;;;;9.10;2.17;;;;;;;14.97;58.64;100254.78;4867862;29;20041;-64
2021/06/12 07:04:40;;;;;;;10.70;2.45;;;;;;;14.67;59.68;100252.59;4880856;29;20132;-65
2021/06/12 07:07:06;;;;;;;6.80;1.70;;;;;;;14.79;58.85;100255.97;4870168;29;20029;-65
2021/06/12 07:09:32;;;;;;;8.85;1.70;;;;;;;15.01;57.34;100252.34;4886250;29;20036;-65
2021/06/12 07:12:00;;;;;;;6.43;1.52;;;;;;;15.04;57.52;100255.38;4893926;29;20051;-65
2021/06/12 07:14:26;;;;;;;5.15;1.58;;;;;;;14.92;56.98;100250.13;4872422;29;20052;-65
2021/06/12 07:16:52;;;;;;;8.20;1.70;;;;;;;14.88;58.25;100251.72;4895459;29;20036;-66
2021/06/12 07:19:20;;;;;;;10.35;1.88;;;;;;;14.91;56.45;100253.91;4888720;29;20169;-66
2021/06/12 07:21:46;;;;;;;4.72;1.52;;;;;;;15.00;57.34;100258.84;4887470;29;20120;-66
2021/06/12 07:24:12;;;;;;;8.20;1.48;;;;;;;15.13;57.49;100257.59;4889666;29;20057;-67
2021/06/12 07:26:38;;;;;;;11.60;1.85;;;;;;;15.14;57.05;100265.50;4879009;29;20041;-66
2021/06/12 07:29:04;;;;;;;6.68;1.50;;;;;;;15.13;56.57;100271.16;4885283;29;20060;-66
2021/06/12 07:31:30;;;;;;;8.43;1.60;;;;;;;15.13;56.20;100273.88;4880275;29;20781;-66
2021/06/12 07:33:56;;;;;;;7.07;1.73;;;;;;;15.32;57.65;100282.44;4900035;29;20045;-66
2021/06/12 07:36:23;;;;;;;10.63;1.70;;;;;;;15.20;56.60;100275.31;4892536;29;20040;-66
2021/06/12 07:38:49;;;;;;;8.30;1.50;;;;;;;14.99;57.13;100278.91;4881546;29;20084;-66
2021/06/12 07:41:14;;;;;;;6.53;1.33;;;;;;;15.05;57.78;100283.34;4879371;29;20088;-66
2021/06/12 07:43:40;;;;;;;5.65;1.52;;;;;;;15.27;57.76;100283.22;4891141;29;20495;-66
2021/06/12 07:46:05;;;;;;;8.43;1.40;;;;;;;15.44;56.76;100287.66;4888703;29;20025;-66
2021/06/12 07:48:31;;;;;;;5.65;1.35;;;;;;;15.71;55.74;100282.13;4887658;29;20534;-66
2021/06/12 07:50:57;;;;;;;5.43;1.38;;;;;;;15.51;55.43;100293.69;4884714;29;20119;-66
2021/06/12 07:53:22;;;;;;;6.97;1.80;;;;;;;15.55;55.86;100302.94;4883479;29;20036;-66
2021/06/12 07:55:48;;;;;;;5.53;1.42;;;;;;;15.73;55.74;100298.13;4878964;29;20096;-65
2021/06/12 07:58:14;;;;;;;6.80;1.50;;;;;;;16.17;55.93;100295.13;4885227;29;20044;-65
2021/06/12 08:00:40;;;;;;;8.10;1.83;;;;;;;16.26;54.60;100300.84;4882241;29;20045;-65
2021/06/12 08:03:05;;;;;;;8.35;1.67;;;;;;;16.20;54.22;100294.59;4880935;29;20033;-66
2021/06/12 08:05:31;;;;;;;5.65;1.40;;;;;;;16.22;54.38;100292.44;4882295;29;20032;-66
2021/06/12 08:07:58;;;;;;;7.85;1.45;;;;;;;15.91;54.69;100294.19;4886968;29;20540;-65
2021/06/12 08:10:24;;;;;;;6.55;1.83;;;;;;;15.49;54.99;100296.66;4880173;29;20040;-65
2021/06/12 08:12:50;;;;;;;9.48;1.90;;;;;;;15.28;55.64;100295.69;4876945;29;132150;-65
2021/06/12 08:15:16;;;;;;;6.80;1.70;;;;;;;15.22;56.72;100294.03;4885466;29;20036;-65
2021/06/12 08:17:44;;;;;;;7.15;1.98;;;;;;;15.07;57.23;100292.03;4885239;29;20491;-66
2021/06/12 08:20:10;;;;;;;8.20;1.80;;;;;;;14.90;57.47;100294.84;4895852;29;20041;-66
2021/06/12 08:22:36;;;;;;;7.57;2.00;;;;;;;14.85;57.78;100302.94;4879684;29;20043;-66
2021/06/12 08:25:04;;;;;;;13.30;1.98;;;;;;;14.75;57.97;100298.25;4887112;29;20029;-66
2021/06/12 08:27:30;;;;;;;7.88;2.00;;;;;;;14.95;58.14;100315.75;4881419;29;20037;-66
2021/06/12 08:29:55;;;;;;;7.43;1.83;;;;;;;14.90;57.86;100301.09;4882572;29;20056;-66
2021/06/12 08:32:21;;;;;;;6.80;1.70;;;;;;;14.70;57.84;100317.16;4885743;29;20048;-66
2021/06/12 08:34:47;;;;;;;12.45;1.92;;;;;;;14.50;58.78;100315.84;4874104;29;20056;-66
2021/06/12 08:37:12;;;;;;;14.43;2.47;;;;;;;14.63;59.08;100330.91;4884684;29;20036;-66
2021/06/12 08:39:38;;;;;;;13.23;2.45;;;;;;;14.60;59.09;100328.72;4884597;29;20044;-66
2021/06/12 08:42:04;;;;;;;7.72;1.63;;;;;;;14.72;59.64;100337.53;4891659;29;20123;-66
2021/06/12 08:44:30;;;;;;;13.27;2.17;;;;;;;14.69;58.67;100329.88;4879799;29;20037;-66
2021/06/12 08:46:56;;;;;;;9.48;2.03;;;;;;;14.92;58.99;100326.06;4891996;29;20040;-67
2021/06/12 08:49:22;;;;;;;10.85;2.13;;;;;;;15.13;58.64;100320.00;4878507;29;20032;-69
2021/06/12 08:51:48;;;;;;;8.35;2.33;;;;;;;15.25;57.63;100320.63;4875367;29;20384;-66
2021/06/12 08:54:15;;;;;;;10.10;2.47;;;;;;;15.26;56.97;100318.75;4880868;29;20055;-66
2021/06/12 08:56:42;;;;;;;8.75;2.00;;;;;;;15.26;57.41;100324.19;4875628;29;20660;-68
2021/06/12 08:59:08;;;;;;;17.52;2.30;;;;;;;15.34;57.93;100332.66;4875994;29;20040;-68
2021/06/12 09:01:33;;;;;;;8.68;1.80;;;;;;;15.56;56.86;100336.34;4883742;29;20421;-67
2021/06/12 09:03:59;;;;;;;13.82;1.83;;;;;;;15.65;56.75;100337.50;4887116;29;20404;-67
2021/06/12 09:06:24;;;;;;;8.73;2.25;;;;;;;15.61;56.79;100341.81;4876780;29;20040;-68
2021/06/12 09:08:50;;;;;;;7.72;1.95;;;;;;;15.50;57.15;100352.59;4882561;29;20475;-68
2021/06/12 09:11:18;;;;;;;9.77;2.20;;;;;;;15.61;56.70;100356.19;4886334;29;20364;-66
2021/06/12 09:13:58;;;;;;;6.25;1.58;;;;;;;15.51;56.81;100364.25;4878262;29;20044;-66
2021/06/12 09:16:40;;;;;;;13.10;1.90;;;;;;;15.52;57.05;100368.59;4888139;29;20032;-67
2021/06/12 09:19:17;;;;;;;8.30;2.10;;;;;;;15.81;55.74;100366.38;4883535;29;20040;-67
2021/06/12 09:21:51;;;;;;;10.60;1.80;;;;;;;15.96;56.25;100381.16;4891158;29;20032;-67
2021/06/12 09:24:25;;;;;;;13.07;2.33;;;;;;;16.06;55.18;100375.78;4885018;29;20040;-67
2021/06/12 09:26:58;;;;;;;6.93;1.83;;;;;;;15.81;55.22;100379.13;4884991;29;20491;-67
2021/06/12 09:29:41;;;;;;;8.57;1.88;;;;;;;15.89;54.87;100361.56;4882768;29;20029;-67
2021/06/12 09:32:22;;;;;;;8.60;1.90;;;;;;;15.95;55.88;100371.38;4883355;29;20032;-67
2021/06/12 09:34:54;;;;;;;9.10;2.10;;;;;;;16.02;55.49;100382.00;4881257;29;20033;-67
2021/06/12 09:37:23;;;;;;;5.30;1.60;;;;;;;15.94;56.83;100381.44;4870318;29;20133;-67
2021/06/12 09:40:04;;;;;;;8.65;1.98;;;;;;;15.75;55.84;100374.72;4889043;29;20040;-67
2021/06/12 09:42:54;;;;;;;8.13;1.80;;;;;;;15.86;56.61;100376.44;4888929;29;20047;-67
2021/06/12 09:45:23;;;;;;;16.63;2.15;;;;;;;16.14;55.86;100376.34;4887042;29;20092;-67
2021/06/12 09:47:49;;;;;;;9.15;1.90;;;;;;;16.20;55.74;100391.59;4892122;29;20509;-67
2021/06/12 09:50:23;;;;;;;7.65;2.03;;;;;;;16.20;56.01;100403.31;4883237;29;20045;-67
2021/06/12 09:52:50;;;;;;;11.82;2.15;;;;;;;16.33;56.25;100398.47;4885605;29;20052;-67
2021/06/12 09:55:30;;;;;;;15.88;2.25;;;;;;;16.41;55.26;100381.66;4894043;29;20033;-67
2021/06/12 09:57:59;;;;;;;11.07;2.22;;;;;;;16.44;56.22;100377.56;4890091;29;20033;-67
2021/06/12 10:00:39;;;;;;;7.18;1.65;;;;;;;16.83;54.83;100371.72;4539840;29;10000034;-67
2021/06/12 10:03:19;;;;;;;7.70;1.80;;;;;;;16.46;53.62;100384.38;4876089;29;20056;-67
2021/06/12 10:05:46;;;;;;;8.23;2.15;;;;;;;15.97;55.15;100382.00;4882161;29;20068;-67
2021/06/12 10:08:15;;;;;;;6.68;1.52;;;;;;;15.92;54.67;100382.75;4882739;29;20107;-67
2021/06/12 10:10:48;;;;;;;10.25;1.23;;;;;;;16.28;54.56;100374.78;4881748;29;20038;-67
2021/06/12 10:13:15;;;;;;;11.55;1.48;;;;;;;16.18;54.19;100367.41;4882900;29;20063;-67
2021/06/12 10:15:41;;;;;;;10.85;1.52;;;;;;;16.15;54.54;100375.28;4887409;29;20040;-67
2021/06/12 10:18:07;;;;;;;6.47;1.48;;;;;;;16.03;54.72;100379.03;4889019;29;20543;-67
2021/06/12 10:20:32;;;;;;;4.95;1.42;;;;;;;16.08;54.76;100375.53;4885018;29;20480;-66
2021/06/12 10:23:01;;;;;;;5.88;1.40;;;;;;;16.11;54.51;100385.88;4886854;29;20048;-67
2021/06/12 10:25:27;;;;;;;30.48;1.92;;;;;;;16.22;54.67;100384.00;4872827;29;20523;-67
2021/06/12 10:27:54;;;;;;;4.35;1.20;;;;;;;16.07;53.55;100371.19;4883502;29;20419;-67
2021/06/12 10:30:24;;;;;;;3.40;0.90;;;;;;;16.24;53.40;100377.22;4884418;29;20068;-67
2021/06/12 10:32:52;;;;;;;6.22;1.20;;;;;;;16.06;53.21;100380.41;4887597;29;20133;-67
2021/06/12 10:35:21;;;;;;;7.03;1.45;;;;;;;16.21;54.18;100388.63;4889615;29;20081;-67
2021/06/12 10:38:01;;;;;;;6.03;1.33;;;;;;;16.16;52.30;100374.19;4887171;29;20732;-66
2021/06/12 10:40:51;;;;;;;6.22;1.40;;;;;;;16.08;53.94;100379.03;4853781;29;20060;-67
2021/06/12 10:43:18;;;;;;;4.57;1.30;;;;;;;16.14;53.20;100368.19;4881630;29;20077;-67
2021/06/12 10:46:11;;;;;;;5.90;1.00;;;;;;;16.25;53.04;100383.47;4858147;29;20037;-66
2021/06/12 10:48:36;;;;;;;12.18;1.90;;;;;;;16.45;52.71;100390.06;4882625;29;20049;-67
2021/06/12 10:51:03;;;;;;;7.32;1.52;;;;;;;16.44;52.72;100385.72;4884886;29;20525;-67
2021/06/12 10:53:34;;;;;;;7.03;1.20;;;;;;;16.57;52.24;100373.53;4884328;29;20042;-67
2021/06/12 10:56:02;;;;;;;9.05;1.58;;;;;;;16.86;52.46;100387.50;4868960;29;20041;-66
2021/06/12 10:58:34;;;;;;;10.55;1.58;;;;;;;16.82;51.29;100387.22;4887426;29;20049;-66
2021/06/12 11:01:16;;;;;;;4.60;1.05;;;;;;;16.82;52.45;100398.09;4886935;29;20025;-67
2021/06/12 11:06:56;;;;;;;11.50;1.52;;;;;;;16.56;52.54;100385.50;4865800;29;20051;-67
2021/06/12 11:09:34;;;;;;;8.52;1.67;;;;;;;16.45;52.88;100388.19;4887389;29;20067;-68
2021/06/12 11:12:23;;;;;;;7.18;1.70;;;;;;;16.48;51.75;100395.81;4885836;29;20574;-65
2021/06/12 11:14:57;;;;;;;6.18;1.30;;;;;;;16.48;51.28;100414.84;4881515;29;20049;-67
2021/06/12 11:17:23;;;;;;;5.40;1.67;;;;;;;16.31;51.35;100396.00;4884490;29;21367;-66
2021/06/12 11:19:54;;;;;;;11.85;1.50;;;;;;;16.50;52.59;100400.97;4884901;29;20116;-66
2021/06/12 11:22:36;;;;;;;6.50;1.38;;;;;;;16.48;51.75;100392.25;4885965;29;20068;-66
2021/06/12 11:25:08;;;;;;;11.88;1.50;;;;;;;16.69;51.77;100383.09;4868472;29;20626;-66
2021/06/12 11:27:37;;;;;;;7.28;1.30;;;;;;;16.92;52.96;100389.16;4887994;29;20482;-66